sensor_id;sensor_type;location;lat;lon;timestamp;P1;durP1;ratioP1;P2;durP2;ratioP2
39998;SDS011;25696;42.646;23.368;2023-07-31T00:02:17;4.80;;;3.00;;
39998;SDS011;25696;42.646;23.368;2023-07-31T00:04:43;4.10;;;3.33;;
39998;SDS011;25696;42.646;23.368;2023-07-31T00:22:42;4.57;;;3.30;;
39998;SDS011;25696;42.646;23.368;2023-07-31T00:25:08;5.28;;;3.38;;
39998;SDS011;25696;42.646;23.368;2023-07-31T00:27:33;4.90;;;2.72;;
39998;SDS011;25696;42.646;23.368;2023-07-31T00:29:59;4.20;;;3.55;;
39998;SDS011;25696;42.646;23.368;2023-07-31T00:32:24;3.33;;;3.03;;
39998;SDS011;25696;42.646;23.368;2023-07-31T00:34:50;4.88;;;3.38;;
39998;SDS011;25696;42.646;23.368;2023-07-31T00:37:15;3.65;;;3.13;;
39998;SDS011;25696;42.646;23.368;2023-07-31T00:39:40;4.25;;;3.45;;
39998;SDS011;25696;42.646;23.368;2023-07-31T00:42:06;4.57;;;3.65;;
39998;SDS011;25696;42.646;23.368;2023-07-31T00:44:32;4.43;;;3.47;;
39998;SDS011;25696;42.646;23.368;2023-07-31T00:46:58;3.80;;;3.40;;
39998;SDS011;25696;42.646;23.368;2023-07-31T00:49:24;4.78;;;4.18;;
39998;SDS011;25696;42.646;23.368;2023-07-31T00:51:50;4.43;;;3.67;;
39998;SDS011;25696;42.646;23.368;2023-07-31T00:54:16;5.65;;;4.20;;
39998;SDS011;25696;42.646;23.368;2023-07-31T00:56:41;4.85;;;4.00;;
39998;SDS011;25696;42.646;23.368;2023-07-31T01:01:46;6.22;;;5.10;;
39998;SDS011;25696;42.646;23.368;2023-07-31T01:04:12;11.73;;;5.43;;
39998;SDS011;25696;42.646;23.368;2023-07-31T01:11:53;7.00;;;6.30;;
39998;SDS011;25696;42.646;23.368;2023-07-31T01:14:22;7.78;;;5.95;;
39998;SDS011;25696;42.646;23.368;2023-07-31T01:16:50;7.03;;;6.32;;
39998;SDS011;25696;42.646;23.368;2023-07-31T01:19:16;9.65;;;7.28;;
39998;SDS011;25696;42.646;23.368;2023-07-31T01:22:16;10.80;;;7.88;;
39998;SDS011;25696;42.646;23.368;2023-07-31T01:27:17;13.20;;;7.95;;
39998;SDS011;25696;42.646;23.368;2023-07-31T01:50:30;22.17;;;19.70;;
39998;SDS011;25696;42.646;23.368;2023-07-31T01:52:55;28.75;;;20.77;;
39998;SDS011;25696;42.646;23.368;2023-07-31T01:55:21;28.02;;;21.92;;
39998;SDS011;25696;42.646;23.368;2023-07-31T01:57:47;27.55;;;22.88;;
39998;SDS011;25696;42.646;23.368;2023-07-31T02:00:13;27.52;;;23.60;;
39998;SDS011;25696;42.646;23.368;2023-07-31T02:02:39;28.80;;;23.20;;
39998;SDS011;25696;42.646;23.368;2023-07-31T02:05:04;26.55;;;22.38;;
39998;SDS011;25696;42.646;23.368;2023-07-31T02:07:30;30.70;;;24.92;;
39998;SDS011;25696;42.646;23.368;2023-07-31T02:09:55;29.45;;;23.83;;
39998;SDS011;25696;42.646;23.368;2023-07-31T02:12:21;31.17;;;25.05;;
39998;SDS011;25696;42.646;23.368;2023-07-31T02:14:46;29.55;;;25.27;;
39998;SDS011;25696;42.646;23.368;2023-07-31T02:40:28;30.42;;;24.40;;
39998;SDS011;25696;42.646;23.368;2023-07-31T02:42:54;29.40;;;24.33;;
39998;SDS011;25696;42.646;23.368;2023-07-31T02:45:19;30.65;;;24.50;;
39998;SDS011;25696;42.646;23.368;2023-07-31T02:47:45;30.42;;;24.88;;
39998;SDS011;25696;42.646;23.368;2023-07-31T02:50:10;31.40;;;24.23;;
39998;SDS011;25696;42.646;23.368;2023-07-31T02:52:35;33.35;;;24.08;;
39998;SDS011;25696;42.646;23.368;2023-07-31T02:55:01;27.85;;;24.05;;
39998;SDS011;25696;42.646;23.368;2023-07-31T02:57:26;27.38;;;23.83;;
39998;SDS011;25696;42.646;23.368;2023-07-31T02:59:52;26.92;;;23.63;;
39998;SDS011;25696;42.646;23.368;2023-07-31T03:02:17;30.23;;;24.02;;
39998;SDS011;25696;42.646;23.368;2023-07-31T03:04:43;28.88;;;23.40;;
39998;SDS011;25696;42.646;23.368;2023-07-31T03:07:08;29.95;;;24.70;;
39998;SDS011;25696;42.646;23.368;2023-07-31T03:09:34;29.10;;;23.50;;
39998;SDS011;25696;42.646;23.368;2023-07-31T03:11:59;29.05;;;23.88;;
39998;SDS011;25696;42.646;23.368;2023-07-31T03:14:24;28.00;;;24.95;;
39998;SDS011;25696;42.646;23.368;2023-07-31T03:16:51;27.17;;;24.17;;
39998;SDS011;25696;42.646;23.368;2023-07-31T03:19:17;28.08;;;24.17;;
39998;SDS011;25696;42.646;23.368;2023-07-31T03:21:42;30.27;;;23.40;;
39998;SDS011;25696;42.646;23.368;2023-07-31T03:24:07;28.42;;;24.10;;
39998;SDS011;25696;42.646;23.368;2023-07-31T03:26:33;28.63;;;24.02;;
39998;SDS011;25696;42.646;23.368;2023-07-31T03:28:59;28.88;;;24.70;;
39998;SDS011;25696;42.646;23.368;2023-07-31T03:31:24;29.55;;;24.42;;
39998;SDS011;25696;42.646;23.368;2023-07-31T03:33:49;27.40;;;23.65;;
39998;SDS011;25696;42.646;23.368;2023-07-31T03:36:15;30.88;;;23.95;;
39998;SDS011;25696;42.646;23.368;2023-07-31T03:38:40;30.25;;;21.02;;
39998;SDS011;25696;42.646;23.368;2023-07-31T03:43:31;28.33;;;20.83;;
